Time;durP1;ratioP1;P1;durP2;ratioP2;P2;SDS_P1;SDS_P2;PMS_P1;PMS_P2;Temp;Humidity;BMP_temperature;BMP_pressure;BME280_temperature;BME280_humidity;BME280_pressure;Samples;Min_cycle;Max_cycle;Signal;HPM_P1;HPM_P2
2021/01/03 00:00:52;;;;;;;;;;;6.60;77.00;;;;;;4956114;28;117590;-84
2021/01/03 00:03:17;;;;;;;;;;;6.60;77.00;;;;;;4956205;28;117554;-84
2021/01/03 00:05:43;;;;;;;;;;;6.60;77.20;;;;;;4955101;28;121325;-84
2021/01/03 00:08:08;;;;;;;;;;;6.60;77.00;;;;;;4955466;28;119405;-83
2021/01/03 00:10:34;;;;;;;;;;;6.60;77.10;;;;;;4956196;28;117522;-83
2021/01/03 00:12:59;;;;;;;;;;;6.50;77.00;;;;;;4972564;28;117312;-83
2021/01/03 00:15:25;;;;;;;;;;;6.60;77.10;;;;;;4955536;28;120315;-83
2021/01/03 00:17:51;;;;;;;;;;;6.60;77.20;;;;;;4955784;28;120618;-83
2021/01/03 00:20:21;;;;;;;;;;;6.60;77.00;;;;;;4956647;28;118054;-83
2021/01/03 00:22:48;;;;;;;;;;;6.60;77.00;;;;;;4956867;28;117837;-83
2021/01/03 00:25:14;;;;;;;;;;;6.60;77.00;;;;;;4955902;28;119364;-83
2021/01/03 00:27:39;;;;;;;;;;;6.60;77.00;;;;;;4972005;28;117574;-83
2021/01/03 00:30:06;;;;;;;;;;;6.60;76.90;;;;;;4973334;28;117516;-83
2021/01/03 00:32:31;;;;;;;;;;;6.60;76.90;;;;;;4957683;28;117762;-83
2021/01/03 00:34:57;;;;;;;;;;;6.60;77.10;;;;;;4956810;28;120656;-83
2021/01/03 00:37:22;;;;;;;;;;;6.60;77.00;;;;;;4956501;28;119870;-83
2021/01/03 00:39:50;;;;;;;;;;;6.60;77.00;;;;;;4957601;28;117656;-83
2021/01/03 00:42:16;;;;;;;;;;;6.60;77.00;;;;;;4958324;28;117917;-83
2021/01/03 00:44:41;;;;;;;;;;;6.60;77.10;;;;;;4957955;28;120327;-83
2021/01/03 00:47:07;;;;;;;;;;;6.60;77.00;;;;;;4957230;28;118278;-83
2021/01/03 00:49:33;;;;;;;;;;;6.60;77.10;;;;;;4959004;28;117807;-84
2021/01/03 00:51:58;;;;;;;;;;;6.60;77.00;;;;;;4957622;28;117769;-84
2021/01/03 00:54:24;;;;;;;;;;;6.60;76.90;;;;;;4975428;28;121536;-84
2021/01/03 00:56:49;;;;;;;;;;;6.60;77.00;;;;;;4958824;28;118837;-83
2021/01/03 00:59:15;;;;;;;;;;;6.60;76.90;;;;;;4958842;28;117608;-83
2021/01/03 01:01:40;;;;;;;;;;;6.60;77.10;;;;;;4976736;28;117901;-83
2021/01/03 01:04:06;;;;;;;;;;;6.60;77.10;;;;;;4959538;28;120588;-83
2021/01/03 01:06:31;;;;;;;;;;;6.60;77.00;;;;;;4976124;28;118998;-83
2021/01/03 01:08:57;;;;;;;;;;;6.60;76.80;;;;;;4961014;28;117649;-84
2021/01/03 01:11:23;;;;;;;;;;;6.60;76.90;;;;;;4960115;28;116966;-83
2021/01/03 01:13:48;;;;;;;;;;;6.60;76.90;;;;;;4953571;28;120856;-83
2021/01/03 01:16:14;;;;;;;;;;;6.60;77.00;;;;;;4953590;28;118476;-83
2021/01/03 01:18:39;;;;;;;;;;;6.60;76.90;;;;;;4954482;28;117529;-84
2021/01/03 01:21:06;;;;;;;;;;;6.60;76.90;;;;;;4955138;28;117829;-84
2021/01/03 01:23:31;;;;;;;;;;;6.60;77.00;;;;;;4970668;28;118814;-84
2021/01/03 01:25:57;;;;;;;;;;;6.60;77.00;;;;;;4954212;28;119108;-84
2021/01/03 01:28:22;;;;;;;;;;;6.60;76.90;;;;;;4955870;28;117612;-84
2021/01/03 01:30:48;;;;;;;;;;;6.60;76.90;;;;;;4955455;28;118900;-83
2021/01/03 01:33:13;;;;;;;;;;;6.60;76.80;;;;;;4954753;28;119614;-83
2021/01/03 01:35:39;;;;;;;;;;;6.60;76.90;;;;;;4954666;28;118679;-83
2021/01/03 01:38:05;;;;;;;;;;;6.60;77.00;;;;;;4955358;28;117573;-83
2021/01/03 01:40:31;;;;;;;;;;;6.60;77.00;;;;;;4971734;28;117827;-84
2021/01/03 01:42:57;;;;;;;;;;;6.50;76.90;;;;;;4955085;28;117463;-84
2021/01/03 01:45:24;;;;;;;;;;;6.60;76.90;;;;;;4955313;28;119422;-84
2021/01/03 01:47:50;;;;;;;;;;;6.60;76.90;;;;;;4956385;28;117465;-84
2021/01/03 01:50:27;;;;;;;;;;;6.60;76.90;;;;;;4956013;28;117867;-84
2021/01/03 01:52:54;;;;;;;;;;;6.60;77.00;;;;;;4971951;28;119105;-84
2021/01/03 01:55:36;;;;;;;;;;;6.60;76.90;;;;;;4972548;28;117971;-84
2021/01/03 01:58:10;;;;;;;;;;;6.60;76.90;;;;;;4957092;28;117600;-84
2021/01/03 02:00:36;;;;;;;;;;;6.60;76.90;;;;;;4957678;28;117808;-84
2021/01/03 02:03:07;;;;;;;;;;;6.50;76.90;;;;;;4973151;28;118633;-83
2021/01/03 02:05:36;;;;;;;;;;;6.60;76.80;;;;;;4972551;28;120080;-83
2021/01/03 02:08:03;;;;;;;;;;;6.60;76.90;;;;;;4957315;28;117653;-84
2021/01/03 02:10:28;;;;;;;;;;;6.60;76.90;;;;;;4958028;28;117798;-84
2021/01/03 02:13:07;;;;;;;;;;;6.60;77.40;;;;;;4974255;28;138036;-84
2021/01/03 02:15:33;;;;;;;;;;;6.60;77.00;;;;;;4973691;28;119354;-84
2021/01/03 02:17:59;;;;;;;;;;;6.60;76.90;;;;;;4975028;28;117551;-83
2021/01/03 02:20:25;;;;;;;;;;;6.60;76.80;;;;;;4959296;28;117945;-84
2021/01/03 02:22:51;;;;;;;;;;;6.60;76.60;;;;;;4958214;28;119386;-84
2021/01/03 02:25:17;;;;;;;;;;;6.60;76.70;;;;;;4975405;28;117720;-83
2021/01/03 02:27:53;;;;;;;;;;;6.60;76.70;;;;;;4972780;28;117857;-83
2021/01/03 02:30:19;;;;;;;;;;;6.60;76.80;;;;;;4969337;28;118203;-84
2021/01/03 02:32:48;;;;;;;;;;;6.50;76.60;;;;;;4952729;28;120809;-84
2021/01/03 02:35:14;;;;;;;;;;;6.60;76.80;;;;;;4953177;28;119654;-83
2021/01/03 02:37:41;;;;;;;;;;;6.60;76.70;;;;;;4970498;28;117723;-83
2021/01/03 02:40:07;;;;;;;;;;;6.50;76.90;;;;;;4954047;28;117641;-83
2021/01/03 02:42:33;;;;;;;;;;;6.60;76.80;;;;;;4985995;28;119590;-83
2021/01/03 02:44:59;;;;;;;;;;;6.60;76.90;;;;;;4953547;28;118679;-83
2021/01/03 02:47:26;;;;;;;;;;;6.50;76.80;;;;;;4954176;28;117613;-84
2021/01/03 02:49:52;;;;;;;;;;;6.50;76.80;;;;;;4970973;28;117452;-84
2021/01/03 02:52:27;;;;;;;;;;;6.50;76.80;;;;;;4952933;28;121437;-84
2021/01/03 02:54:53;;;;;;;;;;;6.50;76.90;;;;;;4952624;28;119427;-84
2021/01/03 02:57:18;;;;;;;;;;;6.50;76.90;;;;;;4953976;28;117527;-84
2021/01/03 02:59:44;;;;;;;;;;;6.50;76.90;;;;;;4954331;28;117834;-84
2021/01/03 03:02:09;;;;;;;;;;;6.60;76.90;;;;;;4953919;28;119547;-84
2021/01/03 03:04:35;;;;;;;;;;;6.50;76.90;;;;;;4953134;28;118289;-84
2021/01/03 03:07:00;;;;;;;;;;;6.50;76.80;;;;;;4955534;28;117514;-84
2021/01/03 03:09:26;;;;;;;;;;;6.50;76.80;;;;;;4954894;28;117907;-84
2021/01/03 03:11:51;;;;;;;;;;;6.60;76.90;;;;;;4970277;28;119569;-84
2021/01/03 03:14:17;;;;;;;;;;;6.50;76.80;;;;;;4969208;28;118747;-84
2021/01/03 03:16:42;;;;;;;;;;;6.50;77.00;;;;;;4955039;28;117596;-84
2021/01/03 03:19:08;;;;;;;;;;;6.50;77.00;;;;;;4954340;28;117618;-84
2021/01/03 03:21:33;;;;;;;;;;;6.50;77.00;;;;;;4970306;28;120794;-84
2021/01/03 03:23:59;;;;;;;;;;;6.50;76.90;;;;;;4954212;28;118478;-84
2021/01/03 03:26:24;;;;;;;;;;;6.50;76.90;;;;;;4955175;28;117286;-84
2021/01/03 03:28:50;;;;;;;;;;;6.50;76.90;;;;;;4955327;28;117344;-84
2021/01/03 03:31:15;;;;;;;;;;;6.50;77.00;;;;;;4954093;28;120137;-84
2021/01/03 03:33:41;;;;;;;;;;;6.50;76.90;;;;;;4954677;28;119967;-84
2021/01/03 03:36:07;;;;;;;;;;;6.50;77.00;;;;;;4955528;28;117622;-84
2021/01/03 03:38:32;;;;;;;;;;;6.50;77.00;;;;;;4956957;28;117778;-83
2021/01/03 03:40:58;;;;;;;;;;;6.50;77.00;;;;;;4987620;28;119125;-83
2021/01/03 03:43:23;;;;;;;;;;;6.50;77.10;;;;;;4951722;28;118703;-83
2021/01/03 03:45:49;;;;;;;;;;;6.50;77.00;;;;;;4967912;28;117406;-84
2021/01/03 03:48:14;;;;;;;;;;;6.50;77.00;;;;;;4952387;28;117238;-84
2021/01/03 03:50:40;;;;;;;;;;;6.50;77.10;;;;;;4949882;28;120934;-84
2021/01/03 03:53:05;;;;;;;;;;;6.50;77.10;;;;;;4950899;28;118615;-84
2021/01/03 03:55:31;;;;;;;;;;;6.50;77.00;;;;;;4952283;28;117462;-84
2021/01/03 03:57:56;;;;;;;;;;;6.50;77.10;;;;;;4952439;28;117858;-84
2021/01/03 04:00:22;;;;;;;;;;;6.50;77.20;;;;;;4950976;28;120993;-84
2021/01/03 04:02:48;;;;;;;;;;;6.50;77.20;;;;;;4951376;28;118852;-84
2021/01/03 04:05:14;;;;;;;;;;;6.50;77.60;;;;;;4952674;28;117498;-84
2021/01/03 04:07:40;;;;;;;;;;;6.50;77.00;;;;;;4951873;28;117849;-84
2021/01/03 04:10:06;;;;;;;;;;;6.50;77.10;;;;;;4967401;28;118568;-84
2021/01/03 04:12:31;;;;;;;;;;;6.50;77.00;;;;;;4951711;28;119743;-84
2021/01/03 04:14:57;;;;;;;;;;;6.50;77.20;;;;;;4951660;28;117491;-84
2021/01/03 04:17:22;;;;;;;;;;;6.50;77.20;;;;;;4952919;28;117855;-84
2021/01/03 04:19:48;;;;;;;;;;;6.50;77.10;;;;;;4950673;28;121502;-84
2021/01/03 04:22:14;;;;;;;;;;;6.50;77.20;;;;;;4951458;28;119819;-84
2021/01/03 04:24:39;;;;;;;;;;;6.50;77.20;;;;;;4953086;28;117456;-84
2021/01/03 04:27:07;;;;;;;;;;;6.50;77.20;;;;;;4955727;28;117935;-84
2021/01/03 04:29:32;;;;;;;;;;;6.50;77.20;;;;;;4954758;28;118069;-84
2021/01/03 04:31:59;;;;;;;;;;;6.50;77.30;;;;;;4953970;28;120543;-84
2021/01/03 04:34:24;;;;;;;;;;;6.50;77.20;;;;;;4955595;28;117493;-84
2021/01/03 04:36:50;;;;;;;;;;;6.50;77.20;;;;;;4955542;28;117548;-84
2021/01/03 04:39:16;;;;;;;;;;;6.50;77.20;;;;;;4954159;28;119707;-84
2021/01/03 04:41:42;;;;;;;;;;;6.50;77.20;;;;;;4953891;28;118778;-84
2021/01/03 04:44:14;;;;;;;;;;;6.50;77.30;;;;;;4955858;28;117522;-84
2021/01/03 04:46:40;;;;;;;;;;;6.50;77.10;;;;;;4956315;28;117878;-84
2021/01/03 04:49:07;;;;;;;;;;;6.50;77.20;;;;;;4954824;28;119487;-85
2021/01/03 04:51:33;;;;;;;;;;;6.50;77.30;;;;;;4953576;28;117781;-84
2021/01/03 04:54:05;;;;;;;;;;;6.50;77.20;;;;;;4954783;28;117535;-84
2021/01/03 04:56:36;;;;;;;;;;;6.50;77.20;;;;;;4970465;28;117823;-84
2021/01/03 04:59:11;;;;;;;;;;;6.50;77.20;;;;;;4968668;28;119776;-84
2021/01/03 05:01:46;;;;;;;;;;;6.50;77.20;;;;;;4952658;28;118701;-85
2021/01/03 05:04:30;;;;;;;;;;;6.50;77.20;;;;;;4987980;28;117447;-84
2021/01/03 05:06:55;;;;;;;;;;;6.50;77.10;;;;;;4970009;28;118025;-84
2021/01/03 05:09:21;;;;;;;;;;;6.50;77.10;;;;;;4952178;28;121043;-84
2021/01/03 05:11:51;;;;;;;;;;;6.50;77.20;;;;;;4952280;28;120651;-84
2021/01/03 05:14:39;;;;;;;;;;;6.50;77.20;;;;;;4953324;28;117506;-84
2021/01/03 05:17:05;;;;;;;;;;;6.50;77.20;;;;;;4976889;28;117719;-84
2021/01/03 05:19:30;;;;;;;;;;;6.50;77.20;;;;;;4968374;28;120600;-84
2021/01/03 05:21:56;;;;;;;;;;;6.50;77.30;;;;;;4951325;28;120220;-84
2021/01/03 05:24:23;;;;;;;;;;;6.50;77.20;;;;;;4953169;28;117457;-84
2021/01/03 05:26:48;;;;;;;;;;;6.50;77.30;;;;;;4953419;28;117458;-84
2021/01/03 05:29:27;;;;;;;;;;;6.50;77.20;;;;;;4968153;28;121619;-84
2021/01/03 05:32:00;;;;;;;;;;;6.50;77.30;;;;;;4951991;28;119594;-84
2021/01/03 05:34:33;;;;;;;;;;;6.50;77.20;;;;;;4952823;28;117540;-84
2021/01/03 05:37:09;;;;;;;;;;;6.50;77.30;;;;;;4952598;28;117905;-84
2021/01/03 05:39:35;;;;;;;;;;;6.50;77.30;;;;;;4951805;28;119089;-84
2021/01/03 05:42:03;;;;;;;;;;;6.50;77.30;;;;;;4951699;28;118570;-84
2021/01/03 05:44:38;;;;;;;;;;;6.50;77.30;;;;;;4952392;28;117486;-84
2021/01/03 05:47:17;;;;;;;;;;;6.50;77.40;;;;;;4952290;28;117731;-84
2021/01/03 05:49:43;;;;;;;;;;;6.50;77.30;;;;;;4967450;28;118581;-85
2021/01/03 05:52:23;;;;;;;;;;;6.50;77.30;;;;;;4951159;28;120299;-85
2021/01/03 05:54:49;;;;;;;;;;;6.50;77.20;;;;;;4952444;28;117488;-85
2021/01/03 05:57:18;;;;;;;;;;;6.50;77.20;;;;;;4952568;28;117797;-85
2021/01/03 05:59:45;;;;;;;;;;;6.50;77.30;;;;;;4951333;28;117992;-85
2021/01/03 06:02:11;;;;;;;;;;;6.50;77.30;;;;;;4951531;28;118715;-85
2021/01/03 06:04:36;;;;;;;;;;;6.50;77.30;;;;;;4968669;28;117530;-86
2021/01/03 06:07:03;;;;;;;;;;;6.50;77.30;;;;;;4952477;28;117864;-85
2021/01/03 06:09:33;;;;;;;;;;;6.50;77.30;;;;;;4951236;28;117780;-85
2021/01/03 06:11:59;;;;;;;;;;;6.50;77.30;;;;;;4950384;28;117790;-85
2021/01/03 06:14:25;;;;;;;;;;;6.50;77.40;;;;;;4952032;28;117546;-85
2021/01/03 06:16:50;;;;;;;;;;;6.50;77.30;;;;;;4952314;28;117387;-85
2021/01/03 06:19:22;;;;;;;;;;;6.50;78.00;;;;;;4950754;28;120717;-84
2021/01/03 06:21:47;;;;;;;;;;;6.50;77.30;;;;;;4967775;28;119476;-84
2021/01/03 06:24:23;;;;;;;;;;;6.50;77.40;;;;;;4969013;28;117454;-84
2021/01/03 06:26:49;;;;;;;;;;;6.50;77.40;;;;;;4969669;28;117796;-84
2021/01/03 06:29:21;;;;;;;;;;;6.50;77.30;;;;;;4951656;28;119642;-84
2021/01/03 06:31:51;;;;;;;;;;;6.40;77.30;;;;;;4967834;28;117980;-84
2021/01/03 06:34:30;;;;;;;;;;;6.50;77.30;;;;;;4951859;28;117279;-84
2021/01/03 06:36:57;;;;;;;;;;;6.50;77.40;;;;;;4951309;28;118003;-84
2021/01/03 06:39:29;;;;;;;;;;;6.50;77.30;;;;;;4950482;28;118098;-84
2021/01/03 06:41:59;;;;;;;;;;;6.50;77.40;;;;;;4966825;28;117414;-85
2021/01/03 06:44:36;;;;;;;;;;;6.40;77.30;;;;;;4951660;28;117600;-85
2021/01/03 06:47:20;;;;;;;;;;;6.40;77.40;;;;;;4951993;28;117714;-85
2021/01/03 06:50:15;;;;;;;;;;;6.40;77.30;;;;;;4965510;28;120057;-85
2021/01/03 06:52:52;;;;;;;;;;;6.40;77.30;;;;;;4897010;28;118138;-85
2021/01/03 06:55:21;;;;;;;;;;;6.40;77.30;;;;;;4951694;28;117430;-85
2021/01/03 06:57:59;;;;;;;;;;;6.40;77.30;;;;;;4951818;28;117798;-85
2021/01/03 07:00:26;;;;;;;;;;;6.40;77.30;;;;;;4950443;28;122014;-85
2021/01/03 07:02:51;;;;;;;;;;;6.40;77.20;;;;;;4949829;28;120569;-85
2021/01/03 07:05:17;;;;;;;;;;;6.40;77.40;;;;;;4967519;28;117484;-85
2021/01/03 07:07:44;;;;;;;;;;;6.40;78.00;;;;;;4951583;28;117758;-85
2021/01/03 07:10:11;;;;;;;;;;;6.40;77.30;;;;;;4950291;28;120946;-85
2021/01/03 07:12:41;;;;;;;;;;;6.50;77.40;;;;;;4950278;28;120508;-85
2021/01/03 07:15:07;;;;;;;;;;;6.40;77.30;;;;;;4951462;28;117402;-85
2021/01/03 07:17:46;;;;;;;;;;;6.40;77.30;;;;;;4951523;28;117364;-85
2021/01/03 07:20:12;;;;;;;;;;;6.40;77.30;;;;;;4949978;28;119837;-84
2021/01/03 07:22:46;;;;;;;;;;;6.40;77.40;;;;;;4950143;28;119320;-85
2021/01/03 07:25:19;;;;;;;;;;;6.40;77.40;;;;;;4967376;28;117643;-85
2021/01/03 07:27:45;;;;;;;;;;;6.40;77.30;;;;;;4950966;28;117306;-85
2021/01/03 07:30:10;;;;;;;;;;;6.40;77.30;;;;;;4950197;28;120081;-85
2021/01/03 07:32:38;;;;;;;;;;;6.40;77.30;;;;;;4966491;28;118965;-86
2021/01/03 07:35:11;;;;;;;;;;;6.40;77.30;;;;;;4967333;28;117476;-85
2021/01/03 07:37:37;;;;;;;;;;;6.40;77.30;;;;;;4951356;28;117731;-85
2021/01/03 07:40:07;;;;;;;;;;;6.40;77.30;;;;;;4949864;28;120379;-85
2021/01/03 07:42:33;;;;;;;;;;;6.40;77.30;;;;;;4950101;28;120581;-85
2021/01/03 07:44:59;;;;;;;;;;;6.40;77.40;;;;;;4950930;28;117870;-85
2021/01/03 07:47:43;;;;;;;;;;;6.50;77.30;;;;;;4951268;28;117816;-85
2021/01/03 07:50:15;;;;;;;;;;;6.40;77.40;;;;;;4965520;28;120075;-84
2021/01/03 07:52:41;;;;;;;;;;;6.40;77.30;;;;;;4965506;28;120698;-85
2021/01/03 07:55:10;;;;;;;;;;;6.40;77.20;;;;;;4950515;28;117659;-85
2021/01/03 07:57:35;;;;;;;;;;;6.40;77.30;;;;;;4951097;28;117496;-85
2021/01/03 08:00:01;;;;;;;;;;;6.50;77.30;;;;;;4950399;28;122196;-85
2021/01/03 08:02:28;;;;;;;;;;;6.40;77.30;;;;;;4953229;28;119205;-85
2021/01/03 08:04:54;;;;;;;;;;;6.50;77.30;;;;;;4954385;28;117434;-85
2021/01/03 08:07:20;;;;;;;;;;;6.40;77.40;;;;;;4954327;28;117557;-85
2021/01/03 08:09:45;;;;;;;;;;;6.40;77.30;;;;;;4953129;28;120801;-85
2021/01/03 08:12:21;;;;;;;;;;;6.40;77.30;;;;;;4952830;28;120426;-85
2021/01/03 08:14:47;;;;;;;;;;;6.40;77.40;;;;;;4953973;28;117561;-85
2021/01/03 08:17:14;;;;;;;;;;;6.40;77.40;;;;;;4953662;28;117837;-86
2021/01/03 08:19:39;;;;;;;;;;;6.40;77.30;;;;;;4952861;28;119678;-86
2021/01/03 08:22:05;;;;;;;;;;;6.40;77.40;;;;;;4952845;28;120362;-86
2021/01/03 08:24:30;;;;;;;;;;;6.40;77.40;;;;;;4970283;28;118079;-85
2021/01/03 08:27:12;;;;;;;;;;;6.40;77.30;;;;;;4954144;28;117975;-85
2021/01/03 08:29:38;;;;;;;;;;;6.40;77.40;;;;;;4952373;28;121282;-85
2021/01/03 08:32:05;;;;;;;;;;;6.40;77.40;;;;;;4969035;28;119302;-85
2021/01/03 08:34:32;;;;;;;;;;;6.40;77.30;;;;;;4953824;28;117550;-85
2021/01/03 08:36:57;;;;;;;;;;;6.40;77.40;;;;;;4954087;28;117553;-85
2021/01/03 08:39:24;;;;;;;;;;;6.40;77.40;;;;;;4952422;28;121595;-85
2021/01/03 08:42:00;;;;;;;;;;;6.40;77.40;;;;;;4952261;28;120298;-85
2021/01/03 08:44:26;;;;;;;;;;;6.40;77.40;;;;;;4953653;28;117535;-85
2021/01/03 08:47:01;;;;;;;;;;;6.40;77.40;;;;;;4953970;28;117335;-85
2021/01/03 08:49:27;;;;;;;;;;;6.40;77.40;;;;;;4952323;28;121126;-85
2021/01/03 08:52:03;;;;;;;;;;;6.40;77.40;;;;;;4952232;28;120418;-86
2021/01/03 08:54:29;;;;;;;;;;;6.40;77.40;;;;;;4953731;28;117393;-86
2021/01/03 08:56:54;;;;;;;;;;;6.40;77.40;;;;;;4953474;28;117323;-85
2021/01/03 08:59:20;;;;;;;;;;;6.40;77.50;;;;;;4952324;28;121428;-86
2021/01/03 09:01:45;;;;;;;;;;;6.40;77.50;;;;;;4952478;28;119275;-86
2021/01/03 09:04:12;;;;;;;;;;;6.40;77.40;;;;;;4953170;28;117626;-86
2021/01/03 09:06:37;;;;;;;;;;;6.40;77.40;;;;;;4953012;28;117921;-85
2021/01/03 09:09:07;;;;;;;;;;;6.40;77.40;;;;;;4951756;28;121456;-86
2021/01/03 09:11:33;;;;;;;;;;;6.40;77.50;;;;;;4951068;28;121177;-85
2021/01/03 09:14:17;;;;;;;;;;;6.40;77.40;;;;;;4954373;28;117555;-85
2021/01/03 09:16:51;;;;;;;;;;;6.40;77.40;;;;;;4969392;28;117894;-85
2021/01/03 09:19:18;;;;;;;;;;;6.40;77.50;;;;;;4951853;28;120650;-85
2021/01/03 09:21:50;;;;;;;;;;;6.40;77.50;;;;;;4951849;28;120456;-85
2021/01/03 09:24:29;;;;;;;;;;;6.40;77.50;;;;;;4953120;28;117667;-85
2021/01/03 09:26:55;;;;;;;;;;;6.40;77.40;;;;;;4953103;28;117350;-86
2021/01/03 09:29:28;;;;;;;;;;;6.40;77.40;;;;;;4951847;28;120727;-86
2021/01/03 09:32:01;;;;;;;;;;;6.40;77.40;;;;;;4967654;28;117819;-86
2021/01/03 09:34:48;;;;;;;;;;;6.40;77.50;;;;;;4969112;28;117292;-86
2021/01/03 09:37:18;;;;;;;;;;;6.40;77.40;;;;;;4952990;28;117343;-86
2021/01/03 09:39:56;;;;;;;;;;;6.40;77.50;;;;;;4951428;28;118624;-86
2021/01/03 09:42:34;;;;;;;;;;;6.40;77.50;;;;;;4967710;28;118407;-86
2021/01/03 09:45:04;;;;;;;;;;;6.40;77.40;;;;;;4986587;28;117666;-86
2021/01/03 09:47:40;;;;;;;;;;;6.40;77.40;;;;;;4952918;28;117879;-86
2021/01/03 09:50:16;;;;;;;;;;;6.40;77.60;;;;;;4951715;28;120551;-87
2021/01/03 09:52:44;;;;;;;;;;;6.40;77.40;;;;;;4951660;28;120796;-87
2021/01/03 09:55:09;;;;;;;;;;;6.40;77.50;;;;;;4952624;28;117498;-87
2021/01/03 09:57:48;;;;;;;;;;;6.40;77.50;;;;;;4968662;28;117871;-87
2021/01/03 10:00:14;;;;;;;;;;;6.40;77.50;;;;;;4951445;28;120814;-87
2021/01/03 10:02:40;;;;;;;;;;;6.40;77.40;;;;;;4968166;28;117990;-87
2021/01/03 10:05:18;;;;;;;;;;;6.40;77.40;;;;;;4952567;28;117314;-87
2021/01/03 10:07:44;;;;;;;;;;;6.40;77.50;;;;;;4969174;28;117586;-87
2021/01/03 10:10:10;;;;;;;;;;;6.40;77.50;;;;;;4951297;28;121076;-87
2021/01/03 10:12:37;;;;;;;;;;;6.40;77.60;;;;;;4951929;28;119363;-87
2021/01/03 10:15:13;;;;;;;;;;;6.40;77.50;;;;;;4952045;28;117969;-87
2021/01/03 10:17:41;;;;;;;;;;;6.40;77.40;;;;;;4952575;28;117783;-87
2021/01/03 10:20:36;;;;;;;;;;;6.40;77.50;;;;;;4951005;28;121471;-87
2021/01/03 10:23:01;;;;;;;;;;;6.40;77.60;;;;;;4896889;28;119814;-87
2021/01/03 10:25:27;;;;;;;;;;;6.40;77.50;;;;;;4951974;28;117576;-87
2021/01/03 10:28:12;;;;;;;;;;;6.40;77.50;;;;;;4952277;28;117781;-87
2021/01/03 10:30:38;;;;;;;;;;;6.40;77.40;;;;;;4950440;28;121736;-87
2021/01/03 10:33:04;;;;;;;;;;;6.40;77.40;;;;;;4950886;28;118947;-87
2021/01/03 10:35:29;;;;;;;;;;;6.40;77.50;;;;;;4951910;28;117687;-87
2021/01/03 10:37:55;;;;;;;;;;;6.40;77.60;;;;;;4952148;28;117834;-87
2021/01/03 10:40:21;;;;;;;;;;;6.40;77.50;;;;;;4950669;28;121171;-87
2021/01/03 10:42:47;;;;;;;;;;;6.40;77.50;;;;;;4950447;28;119416;-86
2021/01/03 10:45:13;;;;;;;;;;;6.40;77.50;;;;;;4952190;28;117478;-86
2021/01/03 10:47:39;;;;;;;;;;;6.40;77.60;;;;;;4951258;28;117766;-86
2021/01/03 10:50:05;;;;;;;;;;;6.40;77.50;;;;;;4950326;28;119835;-86
2021/01/03 10:52:31;;;;;;;;;;;6.40;77.60;;;;;;4950745;28;119753;-86
2021/01/03 10:54:56;;;;;;;;;;;6.40;77.50;;;;;;4951506;28;117347;-86
2021/01/03 10:57:22;;;;;;;;;;;6.40;77.60;;;;;;4952017;28;117263;-86
2021/01/03 10:59:48;;;;;;;;;;;6.40;77.60;;;;;;4966937;28;118460;-86
2021/01/03 11:02:13;;;;;;;;;;;6.40;77.60;;;;;;4950321;28;120244;-86
2021/01/03 11:04:39;;;;;;;;;;;6.40;77.60;;;;;;4968370;28;117493;-86
2021/01/03 11:07:04;;;;;;;;;;;6.40;77.60;;;;;;4951727;28;117738;-86
2021/01/03 11:09:31;;;;;;;;;;;6.40;77.60;;;;;;4967019;28;117431;-86
2021/01/03 11:11:57;;;;;;;;;;;6.40;77.60;;;;;;4950026;28;120404;-86
2021/01/03 11:14:23;;;;;;;;;;;6.40;77.60;;;;;;4951483;28;117762;-85
2021/01/03 11:16:48;;;;;;;;;;;6.40;77.70;;;;;;4951646;28;117510;-86
2021/01/03 11:19:14;;;;;;;;;;;6.40;77.60;;;;;;4950201;28;117863;-86
2021/01/03 11:21:40;;;;;;;;;;;6.40;77.60;;;;;;4950165;28;119662;-85
2021/01/03 11:24:06;;;;;;;;;;;6.40;77.60;;;;;;4951035;28;117578;-86
2021/01/03 11:26:35;;;;;;;;;;;6.50;77.70;;;;;;4951497;28;117829;-85
2021/01/03 11:29:01;;;;;;;;;;;6.40;77.60;;;;;;4950136;28;118186;-86
2021/01/03 11:31:34;;;;;;;;;;;6.40;77.70;;;;;;4950147;28;119735;-86
2021/01/03 11:33:59;;;;;;;;;;;6.40;77.70;;;;;;4950971;28;117495;-86
2021/01/03 11:36:25;;;;;;;;;;;6.40;77.70;;;;;;4953505;28;117847;-86
2021/01/03 11:38:51;;;;;;;;;;;6.40;77.70;;;;;;4969784;28;121002;-86
2021/01/03 11:41:16;;;;;;;;;;;6.40;77.70;;;;;;4953528;28;118076;-86
2021/01/03 11:43:42;;;;;;;;;;;6.40;77.70;;;;;;4971044;28;118048;-86
2021/01/03 11:46:08;;;;;;;;;;;6.50;77.70;;;;;;4954596;28;117875;-86
2021/01/03 11:48:33;;;;;;;;;;;6.40;77.60;;;;;;4953172;28;120810;-86
2021/01/03 11:50:59;;;;;;;;;;;6.40;77.70;;;;;;4952680;28;117775;-85
2021/01/03 11:53:25;;;;;;;;;;;6.40;77.80;;;;;;4954589;28;117458;-85
2021/01/03 11:55:50;;;;;;;;;;;6.40;77.70;;;;;;4954618;28;117973;-85
2021/01/03 11:58:16;;;;;;;;;;;6.40;77.70;;;;;;4953168;28;119065;-85
2021/01/03 12:00:42;;;;;;;;;;;6.40;77.70;;;;;;4952139;28;117614;-85
2021/01/03 12:03:07;;;;;;;;;;;6.40;77.70;;;;;;4970653;28;117573;-85
2021/01/03 12:05:33;;;;;;;;;;;6.40;77.70;;;;;;4954485;28;117804;-85
2021/01/03 12:07:59;;;;;;;;;;;6.40;77.70;;;;;;4953170;28;119648;-85
2021/01/03 12:10:24;;;;;;;;;;;6.40;77.70;;;;;;4953075;28;119518;-85
2021/01/03 12:12:50;;;;;;;;;;;6.40;77.70;;;;;;4953951;28;117217;-85
2021/01/03 12:15:17;;;;;;;;;;;6.40;77.70;;;;;;4954433;28;118026;-85
2021/01/03 12:17:43;;;;;;;;;;;6.40;77.70;;;;;;4953623;28;119592;-85
2021/01/03 12:20:09;;;;;;;;;;;6.40;77.70;;;;;;4952709;28;120155;-85
2021/01/03 12:22:35;;;;;;;;;;;6.40;77.70;;;;;;4953945;28;117524;-85
2021/01/03 12:25:01;;;;;;;;;;;6.40;77.70;;;;;;4953600;28;117511;-85
2021/01/03 12:27:26;;;;;;;;;;;6.40;77.80;;;;;;4953232;28;121121;-85
2021/01/03 12:29:52;;;;;;;;;;;6.40;77.70;;;;;;4952774;28;119994;-85
2021/01/03 12:35:21;;;;;;;;;;;6.40;77.70;;;;;;4988436;28;117614;-85
2021/01/03 12:37:46;;;;;;;;;;;6.40;77.70;;;;;;4970487;28;118687;-82
2021/01/03 12:40:12;;;;;;;;;;;6.40;77.70;;;;;;4953237;28;119475;-82
2021/01/03 12:42:38;;;;;;;;;;;6.40;77.70;;;;;;4954950;28;117348;-81
2021/01/03 12:45:08;;;;;;;;;;;6.40;77.80;;;;;;4955214;28;117797;-83
2021/01/03 12:47:33;;;;;;;;;;;6.40;77.70;;;;;;4952700;28;121336;-84
2021/01/03 12:49:59;;;;;;;;;;;6.40;77.70;;;;;;4968755;28;119941;-84
2021/01/03 12:55:36;;;;;;;;;;;6.40;77.80;;;;;;4987032;28;117876;-84
2021/01/03 13:01:05;;;;;;;;;;;6.40;77.80;;;;;;4987815;28;117442;-84
2021/01/03 13:03:31;;;;;;;;;;;6.40;77.80;;;;;;4953484;28;117554;-84
2021/01/03 13:05:56;;;;;;;;;;;6.40;77.80;;;;;;4954574;28;117983;-84
2021/01/03 13:08:22;;;;;;;;;;;6.40;77.80;;;;;;4953275;28;121223;-84
2021/01/03 13:10:47;;;;;;;;;;;6.40;77.80;;;;;;4953017;28;118460;-84
2021/01/03 13:13:13;;;;;;;;;;;6.40;77.80;;;;;;4955340;28;117463;-84
2021/01/03 13:15:39;;;;;;;;;;;6.40;77.70;;;;;;4953670;28;117525;-84
2021/01/03 13:18:04;;;;;;;;;;;6.40;77.90;;;;;;4952730;28;121467;-85
2021/01/03 13:20:30;;;;;;;;;;;6.40;77.80;;;;;;4969954;28;118449;-84
2021/01/03 13:22:56;;;;;;;;;;;6.40;77.90;;;;;;4953971;28;117489;-85
2021/01/03 13:25:21;;;;;;;;;;;6.40;77.80;;;;;;4970336;28;117838;-84
2021/01/03 13:27:47;;;;;;;;;;;6.40;77.80;;;;;;4969236;28;117415;-84
2021/01/03 13:30:12;;;;;;;;;;;6.40;78.00;;;;;;4969971;28;117637;-84
2021/01/03 13:32:38;;;;;;;;;;;6.40;77.80;;;;;;4954176;28;117540;-84
2021/01/03 13:35:04;;;;;;;;;;;6.40;77.90;;;;;;4954138;28;117794;-84
2021/01/03 13:37:30;;;;;;;;;;;6.40;77.90;;;;;;4952790;28;120359;-84
2021/01/03 13:39:55;;;;;;;;;;;6.40;78.00;;;;;;4968411;28;120622;-84
2021/01/03 13:42:21;;;;;;;;;;;6.40;77.80;;;;;;4969715;28;117443;-84
2021/01/03 13:44:47;;;;;;;;;;;6.40;77.90;;;;;;4953243;28;117888;-84
2021/01/03 13:47:12;;;;;;;;;;;6.40;77.80;;;;;;4951679;28;118577;-84
2021/01/03 13:49:38;;;;;;;;;;;6.40;77.90;;;;;;4968038;28;117865;-84
2021/01/03 13:52:04;;;;;;;;;;;6.40;77.80;;;;;;4968517;28;117569;-84
2021/01/03 13:54:29;;;;;;;;;;;6.40;78.00;;;;;;4952762;28;117484;-84
2021/01/03 13:56:55;;;;;;;;;;;6.40;77.90;;;;;;4951633;28;121661;-84
2021/01/03 13:59:20;;;;;;;;;;;6.40;77.80;;;;;;4950893;28;119025;-84
2021/01/03 14:01:47;;;;;;;;;;;6.40;77.80;;;;;;4969074;28;117930;-84
2021/01/03 14:04:13;;;;;;;;;;;6.40;78.00;;;;;;4952419;28;117791;-84
2021/01/03 14:06:39;;;;;;;;;;;6.40;77.90;;;;;;4967944;28;117579;-84
2021/01/03 14:09:05;;;;;;;;;;;6.40;78.00;;;;;;4951420;28;119218;-84
2021/01/03 14:11:30;;;;;;;;;;;6.40;78.00;;;;;;4952400;28;117585;-84
2021/01/03 14:13:56;;;;;;;;;;;6.40;77.90;;;;;;4969291;28;117687;-84
2021/01/03 14:16:23;;;;;;;;;;;6.40;77.90;;;;;;4951591;28;119745;-84
2021/01/03 14:18:49;;;;;;;;;;;6.40;77.90;;;;;;4951122;28;120387;-84
2021/01/03 14:21:15;;;;;;;;;;;6.40;78.00;;;;;;4952603;28;117529;-84
2021/01/03 14:23:41;;;;;;;;;;;6.40;78.00;;;;;;4952695;28;117749;-84
2021/01/03 14:26:07;;;;;;;;;;;6.40;78.00;;;;;;4951195;28;118422;-84
2021/01/03 14:28:33;;;;;;;;;;;6.40;78.00;;;;;;4950722;28;119245;-84